Wetterdaten: aktuell Dienstag, 26.09.2017 09:05
Datum Zeit Temp. 2m rel. Feuchte Luftdruck Regen Wind Richtung Richtung Sonne ET UV-Index Solar Taupunkt Ben
26.09.2017 09:05 12,6 C 96 % 1021,4 hPa 0,0 mm 1,1 km/h (1 Bft) O 84 0 min 0,0 mm 0,0 UV-I 85 W/m 12,0 C 4,4 km/h (1 Bft)
26.09.2017 08:05 11,8 C 96 % 1021,2 hPa 0,0 mm 0,0 km/h (0 Bft) S 170 0 min 0,0 mm 0,0 UV-I 18 W/m 11,2 C 0,0 km/h (0 Bft)
26.09.2017 07:05 11,7 C 96 % 1020,8 hPa 0,0 mm 0,4 km/h (0 Bft) O 84 0 min 0,0 mm 0,0 UV-I 0 W/m 11,1 C 2,2 km/h (1 Bft)
26.09.2017 06:05 11,5 C 96 % 1020,8 hPa 0,0 mm 0,0 km/h (0 Bft) O 84 0 min 0,0 mm 0,0 UV-I 0 W/m 10,9 C 0,0 km/h (0 Bft)
26.09.2017 05:05 11,5 C 96 % 1020,6 hPa 0,0 mm 0,0 km/h (0 Bft) O 84 0 min 0,0 mm 0,0 UV-I 0 W/m 10,9 C 2,2 km/h (1 Bft)
26.09.2017 04:00 11,5 C 95 % 1020,6 hPa 0,0 mm 0,3 km/h (0 Bft) O 84 0 min 0,0 mm 0,0 UV-I 0 W/m 10,7 C 2,2 km/h (1 Bft)
26.09.2017 03:00 11,3 C 97 % 1020,8 hPa 0,0 mm 1,3 km/h (1 Bft) O 84 0 min 0,0 mm 0,0 UV-I 0 W/m 10,8 C 4,4 km/h (1 Bft)
26.09.2017 02:00 10,8 C 96 % 1020,8 hPa 0,0 mm 0,0 km/h (0 Bft) O 84 0 min 0,0 mm 0,0 UV-I 0 W/m 10,2 C 0,0 km/h (0 Bft)
26.09.2017 01:00 10,9 C 95 % 1020,8 hPa 0,0 mm 0,3 km/h (0 Bft) O 84 0 min 0,0 mm 0,0 UV-I 0 W/m 10,1 C 2,2 km/h (1 Bft)
26.09.2017 00:00 10,9 C 93 % 1020,7 hPa 0,0 mm 0,0 km/h (0 Bft) O 84 0 min 0,0 mm 0,0 UV-I 0 W/m 9,8 C 0,0 km/h (0 Bft)
25.09.2017 23:00 11,7 C 90 % 1020,8 hPa 0,0 mm 0,0 km/h (0 Bft) O 84 0 min 0,0 mm 0,0 UV-I 0 W/m 10,1 C 0,0 km/h (0 Bft)
25.09.2017 22:00 12,7 C 89 % 1020,7 hPa 0,0 mm 0,0 km/h (0 Bft) O 84 0 min 0,0 mm 0,0 UV-I 0 W/m 10,9 C 0,0 km/h (0 Bft)
25.09.2017 21:00 14,0 C 86 % 1020,6 hPa 0,0 mm 0,0 km/h (0 Bft) O 84 0 min 0,0 mm 0,0 UV-I 0 W/m 11,7 C 0,0 km/h (0 Bft)
25.09.2017 20:00 15,9 C 80 % 1020,1 hPa 0,0 mm 0,0 km/h (0 Bft) O 84 0 min 0,0 mm 0,0 UV-I 0 W/m 12,5 C 0,0 km/h (0 Bft)
25.09.2017 19:00 17,7 C 74 % 1019,9 hPa 0,0 mm 0,0 km/h (0 Bft) O 84 0 min 0,1 mm 0,0 UV-I 28 W/m 13,0 C 0,0 km/h (0 Bft)
25.09.2017 18:00 18,2 C 73 % 1019,8 hPa 0,0 mm 0,2 km/h (0 Bft) O 84 0 min 0,1 mm 0,0 UV-I 63 W/m 13,3 C 2,2 km/h (1 Bft)
25.09.2017 17:00 18,2 C 71 % 1019,7 hPa 0,0 mm 0,3 km/h (0 Bft) O 84 0 min 0,1 mm 0,0 UV-I 122 W/m 12,9 C 2,2 km/h (1 Bft)
25.09.2017 16:00 18,4 C 66 % 1019,7 hPa 0,0 mm 0,7 km/h (0 Bft) O-SO 103 30 min 0,3 mm 0,0 UV-I 85 W/m 11,9 C 2,2 km/h (1 Bft)
25.09.2017 15:00 20,4 C 59 % 1020,0 hPa 0,0 mm 2,2 km/h (1 Bft) SO 141 55 min 0,0 mm 0,2 UV-I 586 W/m 12,1 C 6,7 km/h (2 Bft)
25.09.2017 14:00 17,6 C 74 % 1020,4 hPa 0,0 mm 1,3 km/h (1 Bft) SO 135 45 min 0,2 mm 0,3 UV-I 397 W/m 12,9 C 4,4 km/h (1 Bft)
25.09.2017 13:00 16,5 C 78 % 1020,7 hPa 0,0 mm 1,2 km/h (1 Bft) O 84 5 min 0,1 mm 0,3 UV-I 286 W/m 12,6 C 8,9 km/h (2 Bft)
25.09.2017 12:00 15,1 C 85 % 1020,9 hPa 0,0 mm 0,6 km/h (0 Bft) O 84 0 min 0,1 mm 0,2 UV-I 192 W/m 12,6 C 2,2 km/h (1 Bft)
25.09.2017 11:00 13,4 C 91 % 1021,0 hPa 0,0 mm 2,5 km/h (1 Bft) SO 134 0 min 0,1 mm 0,1 UV-I 192 W/m 12,0 C 8,9 km/h (2 Bft)
25.09.2017 10:00 11,7 C 97 % 1021,1 hPa 0,0 mm 1,5 km/h (1 Bft) S-SW 213 0 min 0,0 mm 0,0 UV-I 128 W/m 11,2 C 4,4 km/h (1 Bft)
_ Min-Zeit 00:35 15:10 15:30 - 11:50 - - - - - - 23:35 11:50
Minimum _ 10,7 C 55 % 1019,6 hPa - 0,0 km/h (0 Bft) - - - - - - 9,7 C 0,0 km/h (0 Bft)
_ Max-Zeit 15:10 10:00 09:00 10:00 14:40 - - 12:20 15:05 14:20 15:15 19:10 14:40
Maximum _ 20,8 C 97 % 1021,4 hPa 0,0 mm 5,0 km/h
S (1 Bft)
- - 5 min 0,3 mm 0,6 UV-I 660 W/m 13,5 C 13,3 km/h
SO (3 Bft)
Durchschnitt _ 13,9 C 86 % 1020,6 hPa #0,0 mm 0,6 km/h (0 Bft) O - #0 min. #0,025 mm 0,0 UV-I 34 W/m 11,5 C 2,3 km/h (1 Bft)



© 1998 - 2017 www.pulheimwetter.de